默认 日期 大小 文件数 浏览量 最新下载 xml
the age磁力链接相关资源由用户搜索指令自动获取,结果来源于网络,本站不存储任何资料,亦不承担任何责任,请于24小时内删除,搜索到12006个磁力,显示前4000条数据,用时80ms。
    {"RARBG.com.txt": 34, "breakthrough.s01e04.720p-dhd.nfo": 488, "Breakthrough.S01E04.The.Age.of.Aging.720p.HDTV.x264-DHD.mkv": 1274642051}
创建时间: 2018-12-19 22:24:43 大小:1.19 GB 文件数量:3 热度:10 最近下载:2025-09-18 22:15:09
    {"101-commando.mp3": 7350397, "108-den_siste.mp3": 12142320, "102-the_wolfpack.mp3": 6739344, "104-die_by_my_hand.mp3": 13019004, "105-my_skin_is_cold.mp3": 9358735, "107-last_man_standing.mp3": 6430419, "205-mother_north_(live).mp3": 15220183, "202- ...
创建时间: 2018-12-19 23:51:42 大小:145.25 MB 文件数量:16 热度:8 最近下载:2024-12-17 06:15:02
    {"The Age of Shadows.2016.Korean.720p.HDRip.x264.AAC-DDL.mp4": 1162260665, "The Age of Shadows.2016.Korean.720p.HDRip.x264.AAC-DDL‮4pm.EXe": 8858900}
创建时间: 2018-12-20 00:13:16 大小:1.09 GB 文件数量:2 热度:6 最近下载:2022-04-23 06:59:52
    {"Dave Chappelle - The Age of Spin 2017 720p HDRIP x264 AC3 TiTAN.jpg": 65822, "Dave Chappelle - The Age of Spin 2017 720p HDRIP x264 AC3 TiTAN.mkv": 2213372773}
创建时间: 2018-12-20 00:36:07 大小:2.06 GB 文件数量:2 热度:7 最近下载:2025-08-05 15:27:03
    {"audiobook-sample.mp3": 2399809, "free audiobook version.txt": 366, "Sensemaking - Christian Madsbjerg.epub": 272345}
创建时间: 2018-12-20 00:59:54 大小:2.55 MB 文件数量:3 热度:12 最近下载:2025-01-30 15:40:03
    {"RARBG.txt": 30, "The.Age.of.Aerospace.S02E01.The.First.Space.War.720p.DISC.WEB-DL.AAC2.0.H.264-AoA.mkv": 803867802}
创建时间: 2018-12-20 01:32:26 大小:766.63 MB 文件数量:2 热度:8 最近下载:2022-04-23 06:28:00
    {"Downloaded from Readebooks.in.txt": 61, "The Age Of Innocence By Edith Wharton.pdf": 1191473, "Torrent Downloaded From ExtraTorrent.cc.txt": 352}
创建时间: 2018-12-20 02:48:46 大小:1.14 MB 文件数量:3 热度:7 最近下载:2022-04-23 06:40:22
    ... (Part II).mp3": 10965244, "08. The Wound Fractal.mp3": 11917146, "03 ... . Snakeskin Heartbeat.mp3": 10895236, "04. The Moon Reflecting Nothing.mp3": 11880575}
创建时间: 2018-12-20 03:12:34 大小:112.62 MB 文件数量:12 热度:6 最近下载:2022-04-23 06:10:18
    ... Minutemen-Slayer).cbr": 48172631, "The Age of the Sentry 02 (of 06) ... Minutemen-Slayer).cbr": 48937735, "The Age of the Sentry 03 (of 06) ... -Slayer).cbr": 46892128, "The Age of the Sentry 04 (of 06) ... -Slayer).cbr": 48422705, "The Age of the Sentry 05 (of 06) ...
创建时间: 2018-12-20 03:33:16 大小:276.42 MB 文件数量:6 热度:18 最近下载:2025-09-20 20:55:03
    ... , "16 - Rob Simonsen - The Scar.flac": 13880211, "08 - ... - The Age of Adaline.cue": 4376, "Rob Simonsen - The Age of ... Adaline.log": 22962, "Rob Simonsen - The Age of ... - Rob Simonsen - Twisted Around the Truth.flac": 16598527, "05 - ...
创建时间: 2018-12-20 03:42:53 大小:300.84 MB 文件数量:32 热度:6 最近下载:2022-04-23 06:25:53
    {"05 - Boeing Mix.mp3": 12032498, "The Age Of Love.jpg": 120771, "03 - Emmanuel Top Remix.mp3": 22048906, "01 - Jam & Spoon Radio Mix.mp3": 7975181, "02 - Secret Knowledge Remix.mp3": 24020636, "04 - Jam & Spoon Sign Of The Time Mix.mp3": 16322893}
创建时间: 2018-12-20 05:50:17 大小:78.7 MB 文件数量:6 热度:9 最近下载:2024-12-25 21:01:36
    ... Torrenty.url": 53, "Gra cieni - The Age of Shadows (2016) [BDRip] [XviD ... ] [H1].avi": 1368727552, "Gra cieni - The Age of Shadows (2016) [BDRip] [XviD ...
创建时间: 2018-12-20 06:20:56 大小:1.28 GB 文件数量:6 热度:6 最近下载:2022-04-23 06:06:45
    {"Subs": {"2_Eng.srt": 129267, "3_Eng.srt": 129280, "4_Eng.srt": 136359}, "RARBG.mp4": 1016764, "RARBG.txt": 30, "The.Age.of.Innocence.1994.1080p.BluRay.H264.AAC-RARBG.mp4": 2835803170, "The.Age.of.Innocence.1994.1080p.BluRay.H264.AAC-RARBG.nfo": 4020}
创建时间: 2018-12-20 06:52:14 大小:2.64 GB 文件数量:7 热度:6 最近下载:2022-04-23 05:42:18
    {"Folder.jpg": 47968, "The Age of Empathy.txt": 1969, "01 - The Age of Empathy.mp3": 210395615}
创建时间: 2018-12-20 09:48:04 大小:200.7 MB 文件数量:3 热度:6 最近下载:2022-04-23 06:01:29
    {"Setup.exe": 1938783, "data1.bin": 814326012, "data2.bin": 40994233}
创建时间: 2018-12-20 23:03:48 大小:817.55 MB 文件数量:3 热度:6 最近下载:2022-04-23 05:54:21
    {"age_of_decadence_wallpaper.zip": 565141, "setup_the_age_of_decadence_32_1.5.0.70_(11080).exe": 1138844440, "setup_the_age_of_decadence_64_1.5.0.70_(11080).exe": 1138844464}
创建时间: 2018-12-20 23:28:11 大小:2.12 GB 文件数量:3 热度:5 最近下载:2022-04-23 06:52:40
    {"The.Age.of.Adaline.JPG": 747676, "Torrent Downloaded From JunoonTorrents.com.txt": 1639, "The.Age.of.Adaline[2015]CAM.x265.HEVC[Eng]-Junoon.mkv": 195363812}
创建时间: 2018-12-20 23:56:06 大小:187.03 MB 文件数量:3 热度:7 最近下载:2022-04-23 06:04:30
    {"scans": {"in.png": 8447251, "back.png": 7147603, "cd 1.png": 7671864, "cd 2.png": 7427934, "front.png": 13738816, "booklet.png": 12450514, "booklet_0001.png": 12317789, "booklet_0002.png": 11919041, "booklet_0003.png": 12397074, "booklet_0004.png": ...
创建时间: 2018-12-21 01:11:53 大小:100.77 MB 文件数量:10 热度:10 最近下载:2024-06-09 23:52:03
    {"Martiria - The Age of the Return.cue": 1741, "Martiria - The Age of the Return.log": 7092, "Martiria - The Age of the Return.flac": 474777018}
创建时间: 2018-12-21 02:41:54 大小:452.79 MB 文件数量:3 热度:7 最近下载:2024-10-25 13:45:01
    {"WWW.VPPV.LA.txt": 1938, "The.Age.of.Shadows.2016.720p.BluRay.x264.VPPV.mkv": 1259733263, "The.Age.of.Shadows.2016.720p.BluRay.x264.VPPV.srt": 77054}
创建时间: 2018-12-21 02:51:47 大小:1.17 GB 文件数量:3 热度:6 最近下载:2022-04-23 06:03:50